Time;durP1;ratioP1;P1;durP2;ratioP2;P2;SDS_P1;SDS_P2;PMS_P1;PMS_P2;Temp;Humidity;BMP_temperature;BMP_pressure;BME280_temperature;BME280_humidity;BME280_pressure;Samples;Min_cycle;Max_cycle;Signal;HPM_P1;HPM_P2
2021/05/29 00:01:11;;;;;;;4.20;3.13;;;10.70;99.90;;;;;;5021609;28;20438;-92
2021/05/29 00:03:39;;;;;;;6.85;2.88;;;10.70;99.90;;;;;;5044535;28;20046;-92
2021/05/29 00:06:06;;;;;;;4.25;3.30;;;10.60;99.90;;;;;;5031692;28;20464;-92
2021/05/29 00:08:33;;;;;;;4.28;3.33;;;10.60;99.90;;;;;;5018997;28;20076;-92
2021/05/29 00:11:02;;;;;;;4.18;3.30;;;10.50;99.90;;;;;;5030221;28;20136;-93
2021/05/29 00:13:32;;;;;;;4.20;3.13;;;10.50;99.90;;;;;;5035814;28;20184;-93
2021/05/29 00:16:02;;;;;;;4.15;3.67;;;10.60;99.90;;;;;;5038883;28;20359;-94
2021/05/29 00:18:29;;;;;;;6.40;3.45;;;10.60;99.90;;;;;;5026843;28;20061;-91
2021/05/29 00:20:56;;;;;;;4.47;3.03;;;10.60;99.90;;;;;;5046871;28;20049;-90
2021/05/29 00:23:24;;;;;;;5.35;3.03;;;10.60;99.90;;;;;;5039391;28;20120;-90
2021/05/29 00:25:51;;;;;;;4.13;3.20;;;10.60;99.90;;;;;;5036789;28;20485;-91
2021/05/29 00:28:19;;;;;;;7.18;3.63;;;10.60;99.90;;;;;;5032906;28;20045;-90
2021/05/29 00:30:46;;;;;;;7.45;3.50;;;10.50;99.90;;;;;;5030493;28;20046;-91
2021/05/29 00:33:14;;;;;;;4.60;3.50;;;10.40;99.90;;;;;;5039864;28;20072;-90
2021/05/29 00:35:42;;;;;;;6.00;4.07;;;10.40;99.90;;;;;;5038478;28;20115;-90
2021/05/29 00:38:09;;;;;;;7.78;3.80;;;10.30;99.90;;;;;;5036803;28;20103;-90
2021/05/29 00:40:37;;;;;;;4.82;3.72;;;10.30;99.90;;;;;;5035231;28;20439;-89
2021/05/29 00:43:05;;;;;;;5.53;4.50;;;10.20;99.90;;;;;;5019039;28;20050;-91
2021/05/29 00:45:35;;;;;;;4.75;3.50;;;10.10;99.90;;;;;;5019999;28;20045;-90
2021/05/29 00:48:03;;;;;;;4.60;4.18;;;10.10;99.90;;;;;;4999268;28;20134;-91
2021/05/29 00:50:32;;;;;;;11.07;4.63;;;10.10;99.90;;;;;;5024351;28;20518;-91
2021/05/29 00:53:00;;;;;;;7.57;4.22;;;10.10;99.90;;;;;;5011683;28;20077;-92
2021/05/29 00:55:35;;;;;;;6.57;4.80;;;10.10;99.90;;;;;;5015840;28;20045;-91
2021/05/29 00:58:02;;;;;;;5.28;4.45;;;10.10;99.90;;;;;;5006128;28;20629;-94
2021/05/29 01:00:30;;;;;;;6.60;4.72;;;10.10;99.90;;;;;;5009104;28;20049;-93
2021/05/29 01:02:57;;;;;;;6.28;3.65;;;10.10;99.90;;;;;;5021554;28;20045;-91
2021/05/29 01:05:24;;;;;;;4.30;3.28;;;10.10;99.90;;;;;;5018359;28;20085;-90
2021/05/29 01:07:54;;;;;;;4.55;3.40;;;10.10;99.90;;;;;;5033137;28;20708;-90
2021/05/29 01:10:24;;;;;;;5.28;4.20;;;10.10;99.90;;;;;;5030851;28;20038;-90
2021/05/29 01:12:53;;;;;;;9.15;4.47;;;10.10;99.90;;;;;;5032079;28;20108;-90
2021/05/29 01:15:21;;;;;;;5.63;4.30;;;10.00;99.90;;;;;;5031402;28;20046;-91
2021/05/29 01:17:48;;;;;;;6.95;4.70;;;10.00;99.90;;;;;;5032021;28;20061;-91
2021/05/29 01:20:16;;;;;;;5.00;4.32;;;9.90;99.90;;;;;;5018582;28;20459;-91
2021/05/29 01:22:48;;;;;;;5.22;4.35;;;9.90;99.90;;;;;;5014587;28;20696;-93
2021/05/29 01:25:25;;;;;;;4.72;3.88;;;9.90;99.90;;;;;;5031701;28;20427;-90
2021/05/29 01:28:19;;;;;;;4.15;3.03;;;9.90;99.90;;;;;;5032663;28;20080;-90
2021/05/29 01:30:49;;;;;;;4.88;3.30;;;10.00;99.90;;;;;;5013994;28;20107;-90
2021/05/29 01:33:18;;;;;;;4.57;3.00;;;10.00;99.90;;;;;;5043990;28;20093;-93
2021/05/29 01:35:46;;;;;;;6.00;3.20;;;10.10;99.90;;;;;;5032784;28;20164;-90
2021/05/29 01:38:18;;;;;;;3.85;3.28;;;10.10;99.90;;;;;;5033890;28;20049;-91
2021/05/29 01:40:46;;;;;;;4.15;3.17;;;10.00;99.90;;;;;;5033161;28;20073;-89
2021/05/29 01:43:14;;;;;;;4.50;3.28;;;10.00;99.90;;;;;;5044331;28;20099;-90
2021/05/29 01:45:45;;;;;;;4.93;3.53;;;9.90;99.90;;;;;;5040926;28;20104;-89
2021/05/29 01:48:17;;;;;;;5.22;3.70;;;9.90;99.90;;;;;;5047128;28;20053;-91
2021/05/29 01:50:47;;;;;;;8.98;3.58;;;9.90;99.90;;;;;;5010663;28;20037;-89
2021/05/29 01:53:18;;;;;;;5.57;3.80;;;9.90;99.90;;;;;;5023239;28;20419;-90
2021/05/29 01:55:47;;;;;;;7.60;4.13;;;9.90;99.90;;;;;;5047511;28;20058;-92
2021/05/29 01:58:18;;;;;;;3.65;3.33;;;9.90;99.90;;;;;;5019358;28;20066;-90
2021/05/29 02:00:48;;;;;;;7.90;3.67;;;9.90;99.90;;;;;;4998567;28;20049;-91
2021/05/29 02:03:16;;;;;;;7.20;3.78;;;9.90;99.90;;;;;;5013191;28;20077;-91
2021/05/29 02:05:43;;;;;;;6.75;3.90;;;9.90;99.90;;;;;;5016793;28;20042;-90
2021/05/29 02:08:12;;;;;;;4.47;4.07;;;9.90;99.90;;;;;;5012580;28;20050;-90
2021/05/29 02:10:42;;;;;;;5.20;3.72;;;9.90;99.90;;;;;;5011614;28;20050;-90
2021/05/29 02:13:12;;;;;;;4.63;3.88;;;9.90;99.90;;;;;;5011358;28;20057;-90
2021/05/29 02:15:42;;;;;;;7.63;3.83;;;9.90;99.90;;;;;;5012652;28;20054;-91
2021/05/29 02:18:10;;;;;;;5.05;4.00;;;9.90;99.90;;;;;;5015143;28;20038;-90
2021/05/29 02:20:45;;;;;;;6.18;3.50;;;9.90;99.90;;;;;;4996486;28;20049;-92
2021/05/29 02:23:21;;;;;;;5.35;4.10;;;9.80;99.90;;;;;;5021037;28;20133;-90
2021/05/29 02:25:50;;;;;;;9.00;4.18;;;9.90;99.90;;;;;;5016247;28;20123;-90
2021/05/29 02:28:18;;;;;;;7.15;4.13;;;9.90;99.90;;;;;;4997179;28;20042;-91
2021/05/29 02:30:49;;;;;;;5.40;4.10;;;9.90;99.90;;;;;;5018135;28;20088;-92
2021/05/29 02:33:17;;;;;;;7.40;4.30;;;9.90;99.90;;;;;;5017583;28;20052;-90
2021/05/29 02:35:45;;;;;;;8.23;4.40;;;9.80;99.90;;;;;;5016059;28;20573;-90
2021/05/29 02:38:12;;;;;;;6.68;4.20;;;9.80;99.90;;;;;;5011439;28;20140;-90
2021/05/29 02:40:39;;;;;;;4.47;4.00;;;9.70;99.90;;;;;;4990276;28;20080;-90
2021/05/29 02:43:06;;;;;;;4.25;3.83;;;9.70;99.90;;;;;;5014594;28;20049;-92
2021/05/29 02:45:46;;;;;;;6.88;4.13;;;9.60;99.90;;;;;;5017467;28;20133;-91
2021/05/29 02:48:14;;;;;;;5.75;4.13;;;9.60;99.90;;;;;;5000891;28;20114;-90
2021/05/29 02:50:43;;;;;;;4.60;4.03;;;9.60;99.90;;;;;;5015118;28;20099;-92
2021/05/29 02:53:12;;;;;;;6.97;5.07;;;9.60;99.90;;;;;;5015094;28;20077;-92
2021/05/29 02:55:43;;;;;;;5.90;3.92;;;9.50;99.90;;;;;;5015306;28;20077;-92
2021/05/29 02:58:12;;;;;;;7.55;4.90;;;9.50;99.90;;;;;;5014167;28;20061;-91
2021/05/29 03:00:43;;;;;;;5.13;4.32;;;9.50;99.90;;;;;;5010954;28;20057;-91
2021/05/29 03:03:11;;;;;;;5.97;4.80;;;9.40;99.90;;;;;;5015842;28;20077;-92
2021/05/29 03:05:44;;;;;;;6.22;4.18;;;9.40;99.90;;;;;;5019154;28;20052;-89
2021/05/29 03:08:13;;;;;;;5.28;4.05;;;9.40;99.90;;;;;;5032223;28;20045;-91
2021/05/29 03:10:41;;;;;;;4.50;4.10;;;9.30;99.90;;;;;;5027897;28;20064;-91
2021/05/29 03:13:09;;;;;;;7.93;4.78;;;9.30;99.90;;;;;;4984869;28;20081;-90
2021/05/29 03:15:40;;;;;;;5.47;4.32;;;9.30;99.90;;;;;;4993636;28;20046;-91
2021/05/29 03:18:08;;;;;;;7.57;4.63;;;9.30;99.90;;;;;;5016735;28;20112;-90
2021/05/29 03:20:35;;;;;;;5.18;4.25;;;9.30;99.90;;;;;;5000593;28;20078;-91
2021/05/29 03:23:06;;;;;;;5.63;4.10;;;9.30;99.90;;;;;;5027173;28;20046;-91
2021/05/29 03:25:34;;;;;;;6.47;3.85;;;9.30;99.90;;;;;;5016459;28;20050;-92
2021/05/29 03:28:01;;;;;;;5.05;4.00;;;9.20;99.90;;;;;;5015538;28;20104;-90
2021/05/29 03:30:29;;;;;;;6.15;4.15;;;9.30;99.90;;;;;;5014266;28;20065;-92
2021/05/29 03:32:58;;;;;;;7.55;4.65;;;9.30;99.90;;;;;;5016371;28;20050;-90
2021/05/29 03:35:26;;;;;;;6.63;4.55;;;9.30;99.90;;;;;;5015158;28;20026;-90
2021/05/29 03:37:53;;;;;;;6.80;4.45;;;9.20;99.90;;;;;;5010781;28;20050;-90
2021/05/29 03:40:21;;;;;;;7.10;5.03;;;9.20;99.90;;;;;;5018971;28;20050;-92
2021/05/29 03:42:48;;;;;;;6.25;4.90;;;9.20;99.90;;;;;;5027839;28;20131;-89
2021/05/29 03:45:17;;;;;;;8.05;4.65;;;9.20;99.90;;;;;;5020814;28;20073;-91
2021/05/29 03:47:44;;;;;;;6.00;4.50;;;9.10;99.90;;;;;;5009224;28;20089;-91
2021/05/29 03:50:15;;;;;;;5.30;4.80;;;9.10;99.90;;;;;;5026872;28;20112;-92
2021/05/29 03:52:45;;;;;;;4.93;4.40;;;9.10;99.90;;;;;;4998535;28;20045;-89
2021/05/29 03:55:13;;;;;;;7.35;4.68;;;9.00;99.90;;;;;;5010355;28;20038;-93
2021/05/29 03:57:41;;;;;;;8.15;4.90;;;9.10;99.90;;;;;;5062206;28;20049;-89
2021/05/29 04:00:11;;;;;;;5.45;4.00;;;9.10;99.90;;;;;;5034156;28;20041;-89
2021/05/29 04:02:37;;;;;;;4.30;3.90;;;9.10;99.90;;;;;;5051447;28;20040;-90
2021/05/29 04:05:06;;;;;;;5.80;4.25;;;9.20;99.90;;;;;;5067742;28;20048;-92
2021/05/29 04:07:33;;;;;;;5.13;3.70;;;9.20;99.90;;;;;;5030777;28;20414;-91
2021/05/29 04:10:00;;;;;;;10.27;4.50;;;9.20;99.90;;;;;;5035089;28;20049;-91
2021/05/29 04:12:31;;;;;;;7.80;4.28;;;9.30;99.90;;;;;;5020555;28;20324;-91
2021/05/29 04:14:59;;;;;;;5.57;3.85;;;9.30;99.90;;;;;;5016417;28;20041;-91
2021/05/29 04:17:30;;;;;;;6.97;4.20;;;9.40;99.90;;;;;;5033521;28;20103;-93
2021/05/29 04:19:58;;;;;;;4.88;3.55;;;9.50;99.90;;;;;;5031597;28;20093;-91
2021/05/29 04:22:25;;;;;;;5.78;3.50;;;9.60;99.90;;;;;;5016809;28;20048;-91
2021/05/29 04:24:57;;;;;;;4.07;3.65;;;9.70;99.90;;;;;;5032505;28;20206;-91
2021/05/29 04:27:25;;;;;;;4.10;3.45;;;9.80;99.90;;;;;;5031977;28;20038;-90
2021/05/29 04:29:54;;;;;;;8.57;3.58;;;10.00;99.90;;;;;;5016577;28;20391;-91
2021/05/29 04:32:21;;;;;;;4.03;3.58;;;10.10;99.90;;;;;;5015237;28;20125;-91
2021/05/29 04:34:48;;;;;;;5.88;3.70;;;10.20;99.90;;;;;;5032467;28;20485;-92
2021/05/29 04:37:16;;;;;;;7.47;4.05;;;10.40;99.90;;;;;;5031712;28;20045;-91
2021/05/29 04:39:44;;;;;;;5.53;3.65;;;10.50;99.90;;;;;;5025142;28;20107;-95
2021/05/29 04:42:12;;;;;;;4.93;3.80;;;10.60;99.90;;;;;;5031725;28;20053;-90
2021/05/29 04:44:40;;;;;;;5.45;3.85;;;10.70;99.90;;;;;;5028965;28;20056;-91
2021/05/29 04:47:08;;;;;;;7.97;3.90;;;10.80;99.90;;;;;;5033600;28;20063;-92
2021/05/29 04:49:35;;;;;;;3.85;3.55;;;10.90;99.90;;;;;;5025286;28;20042;-91
2021/05/29 04:52:05;;;;;;;4.38;3.30;;;11.10;99.90;;;;;;5015104;28;20069;-91
2021/05/29 04:54:32;;;;;;;9.95;3.70;;;11.20;99.90;;;;;;5036882;28;20133;-92
2021/05/29 04:57:07;;;;;;;5.75;3.53;;;11.30;99.90;;;;;;5018276;28;20402;-93
2021/05/29 04:59:34;;;;;;;5.90;2.95;;;11.30;99.90;;;;;;5019412;28;20119;-90
2021/05/29 05:02:01;;;;;;;4.95;3.40;;;11.40;99.90;;;;;;5024894;28;20355;-91
2021/05/29 05:04:28;;;;;;;6.20;3.13;;;11.40;99.90;;;;;;5014635;28;20116;-90
2021/05/29 05:06:56;;;;;;;4.82;3.30;;;11.50;99.90;;;;;;5032654;28;20072;-90
2021/05/29 05:09:23;;;;;;;7.70;3.10;;;11.60;99.90;;;;;;5031143;28;20042;-89
2021/05/29 05:11:51;;;;;;;4.57;2.78;;;11.60;99.90;;;;;;5023386;28;20113;-92
2021/05/29 05:14:24;;;;;;;3.42;2.65;;;11.60;99.90;;;;;;5018261;28;20046;-91
2021/05/29 05:16:51;;;;;;;4.10;2.92;;;11.70;99.90;;;;;;5031370;28;20049;-90
2021/05/29 05:19:20;;;;;;;4.18;2.85;;;11.90;99.90;;;;;;5032412;28;20490;-90
2021/05/29 05:21:47;;;;;;;4.68;2.72;;;12.00;99.90;;;;;;5027890;28;20049;-90
2021/05/29 05:24:16;;;;;;;5.50;2.83;;;12.20;99.90;;;;;;5009871;28;20077;-91
2021/05/29 05:26:43;;;;;;;5.55;2.90;;;12.30;99.90;;;;;;5031510;28;20109;-91
2021/05/29 05:29:10;;;;;;;3.30;2.60;;;12.30;99.90;;;;;;5027936;28;20101;-90
2021/05/29 05:31:39;;;;;;;3.22;2.92;;;12.40;99.90;;;;;;5011411;28;20049;-91
2021/05/29 05:34:10;;;;;;;4.65;2.53;;;12.50;99.90;;;;;;5030559;28;20139;-90
2021/05/29 05:36:38;;;;;;;4.85;3.00;;;12.70;99.90;;;;;;5013333;28;20120;-89
2021/05/29 05:39:13;;;;;;;5.05;2.70;;;12.90;99.90;;;;;;5032705;28;20057;-91
2021/05/29 06:05:44;;;;;;;3.70;2.67;;;14.10;99.90;;;;;;4885072;29;20135;-87
2021/05/29 06:12:00;;;;;;;3.30;2.42;;;14.40;99.90;;;;;;4906817;29;20100;-87
2021/05/29 06:20:08;;;;;;;5.68;3.20;;;14.30;99.90;;;;;;5034818;28;20458;-89
2021/05/29 06:22:35;;;;;;;3.00;2.10;;;14.80;99.00;;;;;;5104809;22;20140;-91
2021/05/29 06:25:06;;;;;;;2.38;1.90;;;15.00;93.90;;;;;;5042693;28;20068;-92
2021/05/29 06:27:33;;;;;;;2.63;1.90;;;15.20;92.90;;;;;;5046446;28;20450;-90
2021/05/29 06:30:00;;;;;;;3.65;2.10;;;15.50;93.00;;;;;;5047823;28;20099;-89
2021/05/29 06:32:27;;;;;;;2.35;1.60;;;15.70;87.20;;;;;;5055488;28;20037;-91
2021/05/29 06:34:55;;;;;;;3.22;2.30;;;15.80;86.10;;;;;;5047875;28;20076;-87
2021/05/29 06:37:21;;;;;;;2.88;2.00;;;15.80;86.80;;;;;;5041772;28;20045;-90
2021/05/29 06:39:48;;;;;;;2.47;1.70;;;16.10;86.60;;;;;;5025796;28;20370;-87
2021/05/29 06:42:15;;;;;;;4.20;2.15;;;16.10;82.20;;;;;;5047517;28;20377;-91
2021/05/29 06:44:42;;;;;;;2.25;1.65;;;15.90;81.50;;;;;;5045741;28;20079;-89
2021/05/29 06:47:09;;;;;;;2.25;1.85;;;15.80;82.90;;;;;;5040607;28;20132;-88
2021/05/29 06:49:37;;;;;;;6.00;1.85;;;15.90;82.80;;;;;;5043673;28;20057;-92
2021/05/29 06:52:09;;;;;;;3.15;2.20;;;16.00;81.40;;;;;;5036521;28;20041;-88
2021/05/29 06:59:53;;;;;;;3.45;2.03;;;15.90;80.70;;;;;;5055246;28;20113;-90
2021/05/29 07:02:20;;;;;;;2.55;1.77;;;16.10;81.90;;;;;;5026270;28;20502;-85
2021/05/29 07:04:51;;;;;;;5.82;1.90;;;16.30;82.50;;;;;;5030588;28;20045;-91
2021/05/29 07:07:20;;;;;;;2.67;2.10;;;16.50;79.50;;;;;;5054524;28;20430;-88
2021/05/29 07:09:47;;;;;;;2.35;1.60;;;17.00;77.20;;;;;;5059811;28;20177;-90
2021/05/29 07:12:14;;;;;;;9.43;1.90;;;17.40;75.20;;;;;;5058595;28;20494;-89
2021/05/29 07:14:44;;;;;;;5.05;2.20;;;17.70;72.10;;;;;;5036195;28;20100;-88
2021/05/29 07:17:11;;;;;;;3.17;1.95;;;18.00;69.80;;;;;;5062271;28;20056;-89
2021/05/29 07:19:38;;;;;;;4.55;2.00;;;17.80;67.50;;;;;;5080649;28;20049;-87
2021/05/29 07:22:10;;;;;;;4.15;2.00;;;17.60;67.90;;;;;;5074596;28;20044;-91
2021/05/29 07:24:39;;;;;;;6.07;1.73;;;17.20;67.90;;;;;;5067810;28;20033;-88
2021/05/29 07:27:06;;;;;;;9.23;1.92;;;17.30;70.30;;;;;;5067338;28;20108;-88
2021/05/29 07:29:33;;;;;;;4.43;1.83;;;17.60;69.40;;;;;;5072702;28;20135;-86
2021/05/29 07:32:00;;;;;;;2.78;1.50;;;18.00;68.10;;;;;;5038203;28;20057;-88
2021/05/29 07:34:27;;;;;;;3.80;1.48;;;18.20;65.60;;;;;;5050074;28;20044;-90
2021/05/29 07:36:57;;;;;;;6.38;1.83;;;17.90;64.00;;;;;;5056297;28;20037;-92
2021/05/29 07:39:25;;;;;;;3.60;1.55;;;17.90;65.40;;;;;;5045651;28;20101;-88
2021/05/29 07:41:55;;;;;;;3.08;1.58;;;18.30;63.00;;;;;;5030137;28;20084;-88
2021/05/29 07:47:33;;;;;;;1.45;1.30;;;18.80;60.40;;;;;;5043230;28;20057;-90
2021/05/29 07:50:00;;;;;;;3.03;1.38;;;19.10;62.30;;;;;;5041101;28;20215;-91
2021/05/29 07:53:05;;;;;;;1.85;1.58;;;19.40;61.10;;;;;;5053961;28;20057;-91
2021/05/29 07:55:38;;;;;;;3.47;1.52;;;19.80;57.80;;;;;;5051794;28;20099;-91
2021/05/29 07:58:09;;;;;;;2.92;1.30;;;19.90;58.70;;;;;;5049524;28;20049;-89
2021/05/29 08:00:36;;;;;;;3.05;1.23;;;20.10;58.60;;;;;;5035067;28;20057;-90
2021/05/29 08:03:03;;;;;;;2.10;1.45;;;20.20;57.00;;;;;;5038435;28;20126;-90
2021/05/29 08:05:31;;;;;;;7.57;1.65;;;20.30;58.60;;;;;;5036163;28;20073;-89
2021/05/29 08:08:07;;;;;;;3.55;1.50;;;20.70;55.90;;;;;;5056315;28;20168;-91
2021/05/29 08:10:36;;;;;;;1.60;1.30;;;21.10;54.70;;;;;;5019509;28;20048;-90
2021/05/29 08:13:03;;;;;;;3.92;1.40;;;21.20;54.10;;;;;;5045483;28;20053;-89
2021/05/29 08:15:31;;;;;;;3.45;1.30;;;21.30;53.00;;;;;;5034050;28;20132;-91
2021/05/29 08:17:59;;;;;;;2.53;1.58;;;21.50;51.40;;;;;;5052445;28;20331;-89
2021/05/29 08:20:31;;;;;;;1.58;1.48;;;21.90;52.40;;;;;;5019879;28;20143;-89
2021/05/29 08:23:10;;;;;;;5.20;1.23;;;22.00;49.50;;;;;;5047056;28;20221;-91
2021/05/29 08:25:54;;;;;;;;;;;21.70;51.00;;;;;;5010441;28;20061;-90
2021/05/29 08:28:22;;;;;;;2.55;1.55;;;21.60;50.10;;;;;;5010898;28;20005;-89
2021/05/29 08:30:49;;;;;;;1.20;1.00;;;21.90;51.10;;;;;;4989494;28;20349;-91
2021/05/29 08:33:17;;;;;;;2.95;1.20;;;22.30;49.60;;;;;;5008809;28;20399;-90
2021/05/29 08:35:44;;;;;;;2.10;1.00;;;22.10;50.10;;;;;;4994850;28;20674;-93
2021/05/29 08:38:11;;;;;;;3.47;1.35;;;23.00;49.20;;;;;;5002224;28;20439;-91
2021/05/29 08:40:47;;;;;;;1.75;1.33;;;23.00;48.50;;;;;;5011074;28;20128;-90
2021/05/29 08:43:19;;;;;;;3.85;1.55;;;22.90;46.60;;;;;;5018075;28;20082;-92
2021/05/29 08:45:57;;;;;;;3.43;1.77;;;22.30;47.80;;;;;;4992143;28;20061;-89
2021/05/29 08:48:24;;;;;;;3.15;1.20;;;21.40;49.00;;;;;;5011289;28;20300;-88
2021/05/29 08:54:01;;;;;;;6.63;1.40;;;20.20;51.70;;;;;;5006063;28;20061;-87
2021/05/29 08:56:30;;;;;;;2.17;1.10;;;19.70;50.00;;;;;;5023036;28;20096;-89
2021/05/29 08:59:00;;;;;;;2.25;1.30;;;19.80;51.90;;;;;;5049728;28;20048;-91
2021/05/29 09:01:30;;;;;;;2.50;1.73;;;20.80;52.00;;;;;;5049277;28;20111;-91
2021/05/29 09:04:03;;;;;;;2.55;1.20;;;21.60;49.00;;;;;;5033969;28;20056;-90
2021/05/29 09:06:32;;;;;;;2.78;1.38;;;21.70;49.70;;;;;;5041588;28;20048;-89
2021/05/29 09:09:14;;;;;;;1.60;1.20;;;21.60;49.10;;;;;;5064217;28;20071;-90
2021/05/29 09:11:56;;;;;;;3.20;1.58;;;21.40;48.40;;;;;;5044956;28;20049;-89
2021/05/29 09:14:27;;;;;;;4.25;1.42;;;21.70;48.30;;;;;;5047643;28;20096;-89
2021/05/29 09:17:22;;;;;;;2.45;1.30;;;22.50;48.30;;;;;;5008769;28;20446;-90
2021/05/29 09:20:09;;;;;;;1.20;1.10;;;23.10;46.80;;;;;;5007217;28;20078;-89
2021/05/29 09:22:59;;;;;;;5.25;1.33;;;23.40;44.50;;;;;;4994799;28;20058;-93
2021/05/29 09:25:27;;;;;;;2.40;1.33;;;23.90;44.40;;;;;;5003029;28;20052;-86
2021/05/29 09:27:56;;;;;;;2.42;1.45;;;24.00;43.00;;;;;;4991402;28;20094;-87
2021/05/29 09:30:50;;;;;;;3.05;1.33;;;23.40;43.70;;;;;;5007727;28;20539;-88
2021/05/29 09:33:17;;;;;;;2.58;1.80;;;22.30;44.70;;;;;;5003386;28;20459;-87
2021/05/29 09:35:54;;;;;;;5.43;2.00;;;21.70;47.10;;;;;;5007759;28;20075;-89
2021/05/29 09:38:23;;;;;;;3.33;1.20;;;21.30;47.20;;;;;;4991714;28;20201;-88
2021/05/29 09:40:55;;;;;;;1.42;1.08;;;21.20;49.00;;;;;;5008190;28;20057;-90
2021/05/29 09:43:22;;;;;;;2.55;1.30;;;21.40;47.40;;;;;;5007235;28;20042;-89
2021/05/29 09:46:00;;;;;;;1.17;1.08;;;21.50;47.00;;;;;;5004938;28;20137;-87
2021/05/29 09:48:31;;;;;;;4.13;1.40;;;21.80;46.00;;;;;;5019782;28;20049;-85
2021/05/29 09:51:00;;;;;;;2.03;1.15;;;21.20;47.60;;;;;;5040999;28;20037;-85
2021/05/29 09:53:30;;;;;;;1.60;1.25;;;21.00;47.60;;;;;;5035552;28;20128;-88
2021/05/29 09:55:57;;;;;;;4.93;1.45;;;21.10;47.60;;;;;;5032008;28;20131;-85
2021/05/29 09:58:50;;;;;;;2.65;1.52;;;21.30;47.80;;;;;;5043818;28;20072;-87
2021/05/29 10:01:49;;;;;;;1.35;0.90;;;21.70;45.30;;;;;;5024103;28;20049;-86
2021/05/29 10:04:22;;;;;;;1.02;1.00;;;22.50;45.60;;;;;;5032609;28;20374;-86
2021/05/29 10:06:57;;;;;;;1.20;1.10;;;22.90;43.60;;;;;;5043610;28;20131;-87
2021/05/29 10:09:24;;;;;;;2.33;1.10;;;22.60;44.40;;;;;;5045578;28;20488;-88
2021/05/29 10:11:52;;;;;;;2.95;1.17;;;23.00;43.10;;;;;;5046918;28;20128;-87
2021/05/29 10:14:22;;;;;;;2.55;1.20;;;24.10;43.40;;;;;;5037463;28;20443;-88
2021/05/29 10:16:50;;;;;;;1.38;0.85;;;25.00;38.60;;;;;;5046831;28;20044;-88
2021/05/29 10:19:21;;;;;;;7.65;1.17;;;25.90;35.70;;;;;;5037490;28;20049;-88
2021/05/29 10:21:49;;;;;;;1.30;0.80;;;27.00;38.20;;;;;;5045195;28;20077;-86
2021/05/29 10:24:17;;;;;;;1.30;0.88;;;26.80;35.90;;;;;;5022527;28;20107;-87
2021/05/29 10:26:46;;;;;;;1.23;0.80;;;27.00;35.20;;;;;;5020293;28;20636;-90
2021/05/29 10:29:14;;;;;;;2.28;1.42;;;25.70;35.60;;;;;;5023928;28;20082;-88
2021/05/29 10:31:43;;;;;;;2.08;1.40;;;24.40;38.20;;;;;;5020252;28;20061;-90
2021/05/29 10:34:10;;;;;;;1.20;1.10;;;23.30;42.30;;;;;;5015380;28;20042;-89
2021/05/29 10:36:54;;;;;;;2.90;1.00;;;22.40;42.40;;;;;;5011423;28;20086;-88
2021/05/29 10:39:42;;;;;;;1.08;1.08;;;21.80;44.80;;;;;;5017349;28;20108;-87
2021/05/29 10:42:10;;;;;;;1.58;1.10;;;21.30;46.10;;;;;;5023720;28;20046;-88
2021/05/29 10:45:20;;;;;;;2.83;1.30;;;21.60;47.60;;;;;;5019932;28;20060;-86
2021/05/29 10:48:07;;;;;;;1.83;1.35;;;21.20;47.20;;;;;;5018994;28;20054;-88
2021/05/29 10:50:56;;;;;;;3.38;1.30;;;22.60;47.20;;;;;;5024707;28;20072;-86
2021/05/29 10:53:46;;;;;;;1.83;1.50;;;24.10;44.90;;;;;;5032575;28;20069;-87
2021/05/29 10:56:16;;;;;;;2.03;1.60;;;25.50;43.10;;;;;;5023667;28;20112;-88
2021/05/29 10:58:59;;;;;;;1.98;1.02;;;26.40;38.10;;;;;;5046132;28;20202;-86
2021/05/29 11:01:32;;;;;;;1.70;1.17;;;26.90;41.00;;;;;;5034352;28;20380;-88
2021/05/29 11:04:12;;;;;;;3.97;1.50;;;26.40;38.40;;;;;;5047648;28;20068;-89
2021/05/29 11:06:43;;;;;;;2.67;1.10;;;24.70;40.20;;;;;;5031354;28;20069;-86
2021/05/29 11:09:12;;;;;;;5.80;1.42;;;23.30;43.10;;;;;;5024641;28;20045;-88
2021/05/29 11:11:57;;;;;;;3.40;1.58;;;22.00;45.90;;;;;;5010758;28;20053;-89
2021/05/29 11:14:27;;;;;;;2.70;1.35;;;21.30;47.50;;;;;;5032394;28;20042;-90
2021/05/29 11:16:57;;;;;;;2.83;1.15;;;20.80;49.40;;;;;;5027347;28;20045;-87
2021/05/29 11:19:28;;;;;;;5.82;1.58;;;21.30;50.10;;;;;;5004089;28;20133;-91
2021/05/29 11:21:59;;;;;;;3.10;1.27;;;23.10;48.30;;;;;;5014742;28;20072;-88
2021/05/29 11:24:30;;;;;;;2.83;1.20;;;24.90;44.00;;;;;;5050694;28;20064;-90
2021/05/29 11:26:58;;;;;;;4.35;1.27;;;26.00;42.20;;;;;;5037944;28;20049;-89
2021/05/29 11:29:27;;;;;;;1.38;1.05;;;25.50;40.60;;;;;;5042538;28;20057;-89
2021/05/29 11:31:54;;;;;;;1.92;1.00;;;24.90;40.70;;;;;;5050296;28;20041;-91
2021/05/29 11:34:21;;;;;;;3.10;1.55;;;23.90;42.30;;;;;;5044716;28;20549;-91
2021/05/29 11:36:51;;;;;;;5.60;1.38;;;22.90;44.50;;;;;;5016776;28;20128;-91
2021/05/29 11:39:22;;;;;;;1.27;1.17;;;21.80;46.20;;;;;;5044221;28;20108;-91
2021/05/29 11:41:59;;;;;;;2.80;1.00;;;21.00;47.10;;;;;;5025301;28;20060;-89
2021/05/29 11:44:26;;;;;;;1.38;1.20;;;20.30;47.60;;;;;;5047407;28;20048;-89
2021/05/29 11:46:55;;;;;;;0.90;0.80;;;20.00;48.80;;;;;;5055311;28;20084;-90
2021/05/29 11:49:22;;;;;;;1.70;0.80;;;20.80;49.20;;;;;;5025734;28;20038;-89
2021/05/29 11:51:49;;;;;;;4.88;0.90;;;22.70;46.70;;;;;;5057383;28;20056;-87
2021/05/29 11:54:19;;;;;;;1.55;1.00;;;24.60;42.20;;;;;;5055362;28;20101;-88
2021/05/29 11:56:49;;;;;;;1.65;1.02;;;26.30;40.70;;;;;;5065189;28;20056;-90
2021/05/29 11:59:26;;;;;;;1.50;0.82;;;27.60;38.70;;;;;;5074994;28;20072;-88
2021/05/29 12:01:55;;;;;;;1.33;0.80;;;28.00;36.20;;;;;;5075861;28;20075;-88
2021/05/29 12:04:32;;;;;;;2.42;0.90;;;26.50;35.90;;;;;;5079928;28;20115;-84
2021/05/29 12:07:06;;;;;;;1.23;1.13;;;24.90;38.50;;;;;;5065432;28;20045;-89
2021/05/29 12:09:41;;;;;;;1.58;0.95;;;23.80;41.10;;;;;;5038615;28;20151;-90
2021/05/29 12:12:15;;;;;;;2.53;0.85;;;23.00;42.00;;;;;;5050492;28;20362;-88
2021/05/29 12:14:54;;;;;;;3.70;0.93;;;22.80;43.00;;;;;;5047796;28;20041;-90
2021/05/29 12:17:42;;;;;;;3.72;0.82;;;24.10;40.50;;;;;;5047368;28;20378;-89
2021/05/29 12:20:09;;;;;;;1.65;0.70;;;25.40;39.60;;;;;;5050920;28;20069;-88
2021/05/29 12:22:36;;;;;;;0.82;0.75;;;26.00;35.10;;;;;;5054315;28;20411;-86
2021/05/29 12:25:10;;;;;;;14.15;1.20;;;25.60;36.40;;;;;;5026930;28;20602;-89
2021/05/29 12:27:44;;;;;;;1.00;0.90;;;24.30;39.60;;;;;;5047234;28;20072;-88
2021/05/29 12:30:14;;;;;;;0.80;0.80;;;22.80;40.30;;;;;;5047425;28;20198;-92
2021/05/29 12:32:48;;;;;;;2.72;0.85;;;21.70;43.10;;;;;;5051044;28;20040;-87
2021/05/29 12:35:37;;;;;;;1.77;0.80;;;21.20;45.30;;;;;;5030422;28;20485;-91
2021/05/29 12:38:17;;;;;;;1.55;1.00;;;20.70;44.70;;;;;;5051907;28;20131;-86
2021/05/29 12:40:56;;;;;;;2.30;0.90;;;20.10;45.30;;;;;;5035565;28;20045;-87
2021/05/29 12:43:23;;;;;;;2.80;0.90;;;20.90;45.50;;;;;;5041001;28;20127;-86
2021/05/29 12:45:50;;;;;;;1.67;1.05;;;21.40;44.40;;;;;;5030367;28;20381;-86
2021/05/29 12:48:19;;;;;;;2.33;1.00;;;21.30;44.10;;;;;;5046982;28;20052;-86
2021/05/29 12:53:51;;;;;;;2.85;1.10;;;21.10;46.10;;;;;;5047076;28;20367;-90
2021/05/29 12:56:19;;;;;;;0.57;0.57;;;20.70;44.50;;;;;;5050749;28;20115;-87
2021/05/29 12:59:02;;;;;;;1.20;0.50;;;20.70;43.70;;;;;;5048201;28;20156;-88
2021/05/29 13:01:53;;;;;;;1.10;0.63;;;22.30;44.90;;;;;;5054043;28;20426;-88
2021/05/29 13:07:27;;;;;;;1.55;0.60;;;26.90;36.00;;;;;;5046269;28;20332;-86
2021/05/29 13:12:36;;;;;;;1.50;0.30;;;28.50;33.00;;;;;;5048161;28;20037;-85
2021/05/29 13:15:14;;;;;;;1.48;0.43;;;29.10;30.20;;;;;;5028577;28;20451;-86
2021/05/29 13:17:43;;;;;;;2.53;0.60;;;29.00;30.70;;;;;;5047681;28;20044;-89
2021/05/29 13:20:16;;;;;;;2.78;0.75;;;28.80;31.80;;;;;;5048484;28;20049;-89
2021/05/29 13:22:46;;;;;;;2.97;0.70;;;28.90;31.10;;;;;;5027889;28;20462;-88
2021/05/29 13:25:17;;;;;;;0.38;0.38;;;28.40;31.10;;;;;;5033319;28;20131;-87
2021/05/29 13:27:50;;;;;;;0.60;0.55;;;28.10;31.30;;;;;;5029477;28;20096;-89
2021/05/29 13:30:28;;;;;;;0.93;0.60;;;27.10;32.70;;;;;;5049396;28;20167;-88
2021/05/29 13:33:07;;;;;;;1.60;0.80;;;25.90;34.60;;;;;;5043575;28;20033;-88
2021/05/29 13:35:36;;;;;;;1.20;0.60;;;24.40;35.70;;;;;;5047198;28;20056;-86
2021/05/29 13:38:07;;;;;;;1.30;0.57;;;23.90;37.00;;;;;;5042499;28;20036;-86
2021/05/29 13:40:35;;;;;;;2.13;0.50;;;25.10;38.70;;;;;;5029643;28;20037;-87
2021/05/29 13:43:02;;;;;;;0.75;0.60;;;25.80;35.10;;;;;;5047747;28;20080;-89
2021/05/29 13:45:33;;;;;;;1.20;0.63;;;26.10;35.00;;;;;;5051505;28;20076;-87
2021/05/29 13:48:01;;;;;;;0.85;0.50;;;26.90;35.20;;;;;;5031736;28;20421;-90
2021/05/29 13:50:29;;;;;;;1.48;0.70;;;27.40;34.40;;;;;;5028720;28;20069;-92
2021/05/29 13:52:56;;;;;;;2.58;0.80;;;25.60;35.00;;;;;;5047257;28;20375;-87
2021/05/29 13:55:27;;;;;;;0.73;0.68;;;23.80;37.90;;;;;;5027273;28;20139;-89
2021/05/29 13:57:55;;;;;;;2.95;0.90;;;22.60;40.50;;;;;;5052098;28;20033;-87
2021/05/29 14:00:24;;;;;;;1.38;0.70;;;21.90;42.40;;;;;;5050622;28;20087;-88
2021/05/29 14:02:55;;;;;;;4.15;1.20;;;21.80;43.80;;;;;;5049913;28;20057;-87